Terminal Aerodrome Forecast
Issued by NWS

Home | Current Version | Previous Version | Text Only | Print | Product List | Glossary On
Versions: 1 2 3 4 5 6 7 8 9 10 11 12 13 14 15 16 17 18 19 20 21 22 23 24 25 26 27 28 29 30 31 32 33 34 35 36 37 38 39 40 41 42 43
111
FTUS46 KOTX 130526
TAFCOE
TAF
KCOE 130526Z 1306/1406 20009KT 5SM -RA BR FEW027 SCT040 OVC060
     FM130700 20009KT P6SM VCSH FEW027 SCT050 OVC090
     FM131000 23013G20KT P6SM VCSH OVC100
     FM131500 23018G26KT P6SM BKN100 BKN250
     FM140100 23013G17KT 6SM -RA BKN021 OVC030
      AMD LTD TO CLD AND VIS=

USA.gov is the U.S. government's official web portal to all federal, state and local government web resources and services.